Goldens Bridge, New York
Current Conditions -  °F | °C
As of 10:53 AM on Wednesday 22 Oct 2014 (Local Time) from KDXR Reporting Station
Overcast Overcast  
Wind Chill: 54°   Ceiling: 1500
Heat Index: 54°   Visibility: 10mi
Dew Point: 46°   Wind: 12mph
Humidity: 75%   Direction: 20°NNE
Pressure: 29.97"   Gusts: NA
Location:  41.29°N, 73.68°W
Report Text: KDXR 221453Z 02010KT 10SM OVC015 12/08 A2997 RMK AO2 RAB21E39 SLP148 P0000 60000 T01220078 50000
Loading
Personal Weather Stations






























Interactive Weather Map New forecast layout! Learn more

10-Day Weather Forecast

Advertisements
Track Severe Weather on mobile